Time;durP1;ratioP1;P1;durP2;ratioP2;P2;SDS_P1;SDS_P2;PMS_P1;PMS_P2;Temp;Humidity;BMP_temperature;BMP_pressure;BME280_temperature;BME280_humidity;BME280_pressure;Samples;Min_cycle;Max_cycle;Signal;HPM_P1;HPM_P2
2022/09/11 00:00:21;;;;;;;5.80;4.03;;;13.10;99.90;;;;;;8345504;28;20196;-68
2022/09/11 00:04:21;;;;;;;5.73;3.80;;;13.10;99.90;;;;;;8347256;28;20181;-68
2022/09/11 00:08:22;;;;;;;4.07;3.73;;;13.10;99.90;;;;;;8348963;28;20181;-68
2022/09/11 00:12:23;;;;;;;5.90;3.60;;;13.10;99.90;;;;;;8348113;28;20292;-68
2022/09/11 00:16:36;;;;;;;4.77;3.73;;;13.10;99.90;;;;;;8346589;28;20272;-69
2022/09/11 00:20:36;;;;;;;3.90;3.50;;;13.10;99.90;;;;;;8346624;28;20202;-69
2022/09/11 00:24:37;;;;;;;8.63;3.87;;;13.10;99.90;;;;;;8344809;28;20538;-69
2022/09/11 00:28:38;;;;;;;4.77;3.63;;;13.20;99.90;;;;;;8344864;28;20197;-69
2022/09/11 00:32:40;;;;;;;5.20;3.43;;;13.20;99.90;;;;;;8346713;28;20214;-69
2022/09/11 00:36:42;;;;;;;4.17;3.30;;;13.20;99.90;;;;;;8346201;28;20174;-70
2022/09/11 00:40:46;;;;;;;4.13;3.73;;;13.20;99.90;;;;;;8347834;28;20181;-69
2022/09/11 00:44:47;;;;;;;4.37;3.50;;;13.20;99.90;;;;;;8367703;28;20197;-68
2022/09/11 00:48:48;;;;;;;4.53;3.30;;;13.20;99.90;;;;;;8347416;28;20239;-68
2022/09/11 00:53:05;;;;;;;4.20;3.13;;;13.20;99.90;;;;;;8356473;28;20275;-69
2022/09/11 00:57:07;;;;;;;4.17;3.10;;;13.20;99.90;;;;;;8365225;28;20174;-69
2022/09/11 01:01:08;;;;;;;3.27;2.97;;;13.20;99.90;;;;;;8340425;28;20193;-68
2022/09/11 01:05:11;;;;;;;3.53;3.10;;;13.30;99.90;;;;;;8346120;28;20186;-68
2022/09/11 01:09:12;;;;;;;4.63;3.40;;;13.30;99.90;;;;;;8349385;28;20189;-68
2022/09/11 01:13:21;;;;;;;4.00;3.57;;;13.30;99.90;;;;;;8347419;28;20214;-68
2022/09/11 01:17:59;;;;;;;4.33;3.90;;;13.30;99.90;;;;;;8339207;28;20185;-69
2022/09/11 01:22:06;;;;;;;6.37;4.33;;;13.30;99.90;;;;;;8363601;28;20201;-68
2022/09/11 01:26:37;;;;;;;6.10;4.10;;;13.30;99.90;;;;;;8351999;28;20524;-69
2022/09/11 01:30:48;;;;;;;4.10;3.67;;;13.30;99.90;;;;;;8369487;28;20190;-68
2022/09/11 01:35:01;;;;;;;4.00;3.50;;;13.40;99.90;;;;;;8351522;28;20205;-68
2022/09/11 01:39:03;;;;;;;5.00;3.97;;;13.40;99.90;;;;;;8352939;28;20212;-69
2022/09/11 01:43:15;;;;;;;6.13;3.53;;;13.40;99.90;;;;;;8347814;28;20182;-69
2022/09/11 01:47:18;;;;;;;4.27;3.87;;;13.40;99.90;;;;;;8355247;28;20297;-68
2022/09/11 01:51:24;;;;;;;4.80;3.60;;;13.40;99.90;;;;;;8349595;28;20194;-69
2022/09/11 01:55:33;;;;;;;4.73;4.10;;;13.40;99.90;;;;;;8352676;28;20189;-69
2022/09/11 01:59:41;;;;;;;7.03;3.83;;;13.40;99.90;;;;;;8349516;28;20170;-68
2022/09/11 02:03:49;;;;;;;4.50;4.10;;;13.40;99.90;;;;;;8347948;28;20186;-69
2022/09/11 02:08:06;;;;;;;5.27;3.30;;;13.40;99.90;;;;;;8360554;28;20182;-69
2022/09/11 02:12:10;;;;;;;7.43;4.10;;;13.40;99.90;;;;;;8352107;28;20219;-69
2022/09/11 02:16:20;;;;;;;4.40;3.43;;;13.30;99.90;;;;;;8349787;28;20177;-69
2022/09/11 02:20:21;;;;;;;6.90;3.93;;;13.30;99.90;;;;;;8380002;28;20714;-68
2022/09/11 02:24:22;;;;;;;6.53;4.33;;;13.40;99.90;;;;;;8351827;28;20185;-68
2022/09/11 02:28:24;;;;;;;5.30;3.97;;;13.40;99.90;;;;;;8349563;28;20190;-69
2022/09/11 02:32:26;;;;;;;4.63;4.00;;;13.40;99.90;;;;;;8355060;28;20206;-68
2022/09/11 02:36:53;;;;;;;4.10;3.70;;;13.40;99.90;;;;;;8360836;28;20204;-68
2022/09/11 02:41:12;;;;;;;4.77;4.30;;;13.40;99.90;;;;;;8348936;28;20269;-68
2022/09/11 02:45:33;;;;;;;4.63;4.07;;;13.30;99.90;;;;;;8349212;28;20197;-68
2022/09/11 02:49:43;;;;;;;5.00;4.57;;;13.30;99.90;;;;;;8352479;28;20217;-69
2022/09/11 02:54:08;;;;;;;6.20;4.50;;;13.30;99.90;;;;;;8347607;28;20198;-69
2022/09/11 02:58:25;;;;;;;4.83;4.43;;;13.30;99.90;;;;;;8350603;28;20273;-69
2022/09/11 03:02:30;;;;;;;5.37;4.57;;;13.20;99.90;;;;;;8378155;28;20182;-69
2022/09/11 03:06:31;;;;;;;5.80;4.90;;;13.20;99.90;;;;;;8349481;28;20293;-69
2022/09/11 03:10:33;;;;;;;5.30;4.73;;;13.20;99.90;;;;;;8348658;28;20182;-69
2022/09/11 03:14:34;;;;;;;6.07;5.43;;;13.20;99.90;;;;;;8344763;28;20210;-69
2022/09/11 03:18:35;;;;;;;6.23;4.40;;;13.20;99.90;;;;;;8348014;28;20174;-69
2022/09/11 03:22:36;;;;;;;6.30;5.13;;;13.10;99.90;;;;;;8348454;28;20201;-70
2022/09/11 03:26:37;;;;;;;5.83;5.23;;;13.00;99.90;;;;;;8347677;28;20185;-69
2022/09/11 03:30:40;;;;;;;6.50;5.07;;;13.00;99.90;;;;;;8385411;28;20186;-68
2022/09/11 03:34:41;;;;;;;8.07;5.43;;;12.90;99.90;;;;;;8350422;28;20499;-69
2022/09/11 03:38:44;;;;;;;8.40;5.47;;;12.80;99.90;;;;;;8349039;28;20182;-69
2022/09/11 03:42:45;;;;;;;6.90;5.83;;;12.80;99.90;;;;;;8347077;28;20185;-69
2022/09/11 03:46:45;;;;;;;8.37;5.33;;;12.80;99.90;;;;;;8349031;28;20181;-69
2022/09/11 03:50:47;;;;;;;6.03;5.43;;;12.80;99.90;;;;;;8342480;28;20205;-69
2022/09/11 03:54:48;;;;;;;9.47;6.53;;;12.80;99.90;;;;;;8346743;28;20202;-69
2022/09/11 03:58:53;;;;;;;6.40;5.37;;;12.90;99.90;;;;;;8350789;28;20197;-69
2022/09/11 04:02:57;;;;;;;7.77;5.83;;;12.90;99.90;;;;;;8341927;28;20657;-69
2022/09/11 04:06:58;;;;;;;9.00;5.80;;;13.00;99.90;;;;;;8348970;28;20185;-69
2022/09/11 04:11:01;;;;;;;6.40;5.57;;;13.00;99.90;;;;;;8347993;28;20178;-68
2022/09/11 04:15:02;;;;;;;7.30;5.33;;;13.00;99.90;;;;;;8349785;28;20238;-69
2022/09/11 04:19:03;;;;;;;7.17;5.90;;;12.90;99.90;;;;;;8346023;28;20209;-69
2022/09/11 04:23:05;;;;;;;8.20;5.53;;;12.90;99.90;;;;;;8347038;28;20292;-69
2022/09/11 04:27:06;;;;;;;7.47;5.40;;;12.80;99.90;;;;;;8347947;28;20197;-69
2022/09/11 04:31:06;;;;;;;7.40;5.33;;;12.80;99.90;;;;;;8347367;28;20237;-69
2022/09/11 04:35:07;;;;;;;8.23;5.90;;;12.80;99.90;;;;;;8345513;28;20223;-69
2022/09/11 04:39:10;;;;;;;8.70;5.73;;;12.90;99.90;;;;;;8344003;28;20174;-69
2022/09/11 04:43:10;;;;;;;7.77;6.03;;;12.90;99.90;;;;;;8340347;28;20186;-69
2022/09/11 04:47:12;;;;;;;8.10;5.93;;;12.90;99.90;;;;;;8343275;28;20182;-69
2022/09/11 04:51:22;;;;;;;11.00;5.80;;;12.90;99.90;;;;;;8348067;28;20196;-69
2022/09/11 04:55:24;;;;;;;8.77;6.20;;;12.90;99.90;;;;;;8345589;28;20244;-68
2022/09/11 04:59:25;;;;;;;11.07;7.13;;;13.00;99.90;;;;;;8341419;28;20209;-68
2022/09/11 05:03:35;;;;;;;9.67;6.90;;;13.00;99.90;;;;;;8345538;28;20190;-69
2022/09/11 05:07:37;;;;;;;10.00;7.33;;;13.10;99.90;;;;;;8345980;28;20190;-69
2022/09/11 05:11:38;;;;;;;14.63;7.93;;;13.10;99.90;;;;;;8355378;23;20325;-72
2022/09/11 05:15:39;;;;;;;8.70;6.77;;;13.20;99.90;;;;;;8284389;28;20187;-69
2022/09/11 05:19:42;;;;;;;8.33;7.40;;;13.30;99.90;;;;;;8282170;28;20210;-69
2022/09/11 05:23:47;;;;;;;12.67;8.30;;;13.30;99.90;;;;;;8284823;28;20230;-69
2022/09/11 05:27:49;;;;;;;9.30;7.53;;;13.40;99.90;;;;;;8280441;28;20221;-69
2022/09/11 05:31:51;;;;;;;8.57;7.77;;;13.40;99.90;;;;;;8282422;28;20183;-69
2022/09/11 05:35:54;;;;;;;11.13;8.37;;;13.50;99.90;;;;;;8294912;28;20176;-69
2022/09/11 05:39:54;;;;;;;8.40;7.60;;;13.60;99.90;;;;;;8297689;28;20187;-70
2022/09/11 05:43:57;;;;;;;9.03;7.80;;;13.60;99.90;;;;;;8296915;28;20541;-69
2022/09/11 05:47:58;;;;;;;9.10;8.20;;;13.60;99.90;;;;;;8288372;28;20194;-69
2022/09/11 05:51:59;;;;;;;13.87;8.57;;;13.60;99.90;;;;;;8292514;28;20214;-69
2022/09/11 05:56:20;;;;;;;9.83;8.60;;;13.60;99.90;;;;;;8297613;28;20179;-69
2022/09/11 06:00:29;;;;;;;9.67;8.33;;;13.70;99.90;;;;;;8277754;28;20177;-69
2022/09/11 06:04:30;;;;;;;11.77;8.77;;;13.70;99.90;;;;;;8294440;28;20179;-69
2022/09/11 06:08:32;;;;;;;9.37;8.43;;;13.80;99.90;;;;;;8301769;28;20273;-69
2022/09/11 06:12:33;;;;;;;9.97;8.97;;;13.90;99.90;;;;;;8299201;28;20211;-69
2022/09/11 06:16:41;;;;;;;9.97;8.97;;;13.90;99.90;;;;;;8301931;28;20238;-69
2022/09/11 06:20:41;;;;;;;10.93;9.60;;;14.00;99.90;;;;;;8288617;28;20190;-69
2022/09/11 06:24:42;;;;;;;10.20;9.07;;;14.00;99.90;;;;;;8284684;28;20187;-69
2022/09/11 06:28:43;;;;;;;12.87;10.20;;;14.20;99.90;;;;;;8292087;28;20382;-69
2022/09/11 06:32:48;;;;;;;11.27;9.83;;;14.30;99.90;;;;;;8301887;28;20210;-70
2022/09/11 06:36:49;;;;;;;11.37;10.00;;;14.40;99.90;;;;;;8301784;28;20630;-69
2022/09/11 06:40:50;;;;;;;11.63;9.37;;;14.40;99.90;;;;;;8303066;28;20175;-69
2022/09/11 06:44:51;;;;;;;10.57;9.03;;;14.40;99.90;;;;;;8304014;28;20194;-69
2022/09/11 06:48:52;;;;;;;11.30;9.63;;;14.40;99.90;;;;;;8301028;28;20201;-69
2022/09/11 06:52:53;;;;;;;12.53;11.03;;;14.40;99.90;;;;;;8286674;28;20285;-68
2022/09/11 06:57:00;;;;;;;12.77;11.03;;;14.50;99.90;;;;;;8304987;28;20234;-69
2022/09/11 07:01:05;;;;;;;14.10;10.43;;;14.50;99.90;;;;;;8303580;28;20186;-69
2022/09/11 07:05:08;;;;;;;13.23;10.90;;;14.60;99.90;;;;;;8283156;28;20198;-69
2022/09/11 07:09:10;;;;;;;12.03;10.80;;;14.60;99.90;;;;;;8294299;28;20206;-68
2022/09/11 07:13:11;;;;;;;15.93;10.57;;;14.50;99.90;;;;;;8285904;28;20215;-69
2022/09/11 07:17:15;;;;;;;12.87;11.43;;;14.50;99.90;;;;;;8286643;28;20178;-69
2022/09/11 07:21:22;;;;;;;12.97;11.17;;;14.60;99.90;;;;;;8289030;28;20187;-70
2022/09/11 07:25:25;;;;;;;13.10;11.60;;;14.70;99.90;;;;;;8292451;28;20190;-68
2022/09/11 07:29:27;;;;;;;13.30;11.73;;;14.70;99.90;;;;;;8289923;28;20208;-69
2022/09/11 07:33:28;;;;;;;16.40;11.03;;;14.60;99.90;;;;;;8300147;28;20272;-69
2022/09/11 07:37:29;;;;;;;13.57;11.77;;;14.60;99.90;;;;;;8285683;28;20186;-69
2022/09/11 07:41:30;;;;;;;14.17;11.77;;;14.60;99.90;;;;;;8297959;28;20180;-69
2022/09/11 07:45:32;;;;;;;13.77;12.13;;;14.80;99.90;;;;;;8287094;28;20190;-69
2022/09/11 07:49:33;;;;;;;11.47;10.33;;;15.10;99.90;;;;;;8299876;28;20217;-68
2022/09/11 07:53:36;;;;;;;11.30;9.77;;;15.30;99.90;;;;;;8301434;28;20207;-69
2022/09/11 07:57:37;;;;;;;10.60;9.60;;;15.50;99.90;;;;;;8289546;28;20258;-69
2022/09/11 08:01:38;;;;;;;10.10;9.10;;;15.90;99.90;;;;;;8300924;28;20178;-68
2022/09/11 08:05:39;;;;;;;11.03;9.10;;;15.80;99.90;;;;;;8288580;28;20286;-68
2022/09/11 08:09:40;;;;;;;11.87;9.87;;;15.80;99.90;;;;;;8305500;28;20191;-69
2022/09/11 08:13:42;;;;;;;10.77;9.33;;;15.80;99.90;;;;;;8299627;28;20222;-69
2022/09/11 08:17:43;;;;;;;9.27;8.37;;;15.70;99.90;;;;;;8301622;28;20187;-68
2022/09/11 08:21:46;;;;;;;9.43;8.30;;;15.80;99.90;;;;;;8301467;28;20175;-69
2022/09/11 08:25:46;;;;;;;9.60;8.20;;;16.00;99.90;;;;;;8284511;28;20186;-69
2022/09/11 08:29:47;;;;;;;10.27;7.67;;;16.20;99.90;;;;;;8278523;28;20187;-69
2022/09/11 08:33:48;;;;;;;7.93;7.10;;;16.20;99.90;;;;;;8282651;28;20206;-70
2022/09/11 08:37:50;;;;;;;10.00;7.70;;;16.00;99.90;;;;;;8282795;28;20237;-68
2022/09/11 08:42:11;;;;;;;10.67;7.67;;;16.00;99.90;;;;;;8284577;28;20179;-69
2022/09/11 08:46:15;;;;;;;10.90;8.20;;;15.90;99.90;;;;;;8284373;28;20305;-68
2022/09/11 08:50:24;;;;;;;9.90;7.83;;;15.70;99.90;;;;;;8298696;28;20237;-68
2022/09/11 08:54:32;;;;;;;8.80;7.90;;;15.70;99.90;;;;;;8298924;28;20250;-68
2022/09/11 08:58:35;;;;;;;10.00;8.77;;;15.60;99.90;;;;;;8300839;28;20181;-69
2022/09/11 09:02:55;;;;;;;10.63;9.47;;;15.50;99.90;;;;;;8298237;28;20187;-68
2022/09/11 09:07:34;;;;;;;9.97;8.63;;;15.50;99.90;;;;;;8283298;28;20195;-68
2022/09/11 09:11:56;;;;;;;10.00;9.00;;;15.50;99.90;;;;;;8153089;28;20225;-69
2022/09/11 09:16:20;;;;;;;9.73;8.33;;;15.50;99.90;;;;;;8224475;28;20193;-69
2022/09/11 09:20:28;;;;;;;9.33;8.37;;;15.60;99.90;;;;;;8301256;28;20182;-68
2022/09/11 09:24:43;;;;;;;9.63;7.47;;;15.70;99.90;;;;;;8297418;28;20179;-68
2022/09/11 09:28:50;;;;;;;9.07;7.70;;;15.80;99.90;;;;;;8282532;28;20193;-69
2022/09/11 09:33:21;;;;;;;8.30;7.27;;;15.80;99.90;;;;;;8280556;28;20273;-69
2022/09/11 09:37:25;;;;;;;9.57;8.20;;;15.60;99.90;;;;;;8298551;28;20289;-68
2022/09/11 09:41:48;;;;;;;8.63;7.73;;;15.50;99.90;;;;;;8295877;28;20202;-69
2022/09/11 09:46:06;;;;;;;7.37;6.60;;;15.60;99.90;;;;;;8305428;28;20202;-68
2022/09/11 09:50:19;;;;;;;8.10;7.33;;;15.60;99.90;;;;;;8288644;28;20248;-69
2022/09/11 09:54:25;;;;;;;8.20;7.40;;;15.60;99.90;;;;;;8299560;28;20226;-68
2022/09/11 09:58:31;;;;;;;7.90;7.10;;;15.50;99.90;;;;;;8295801;28;20178;-68
2022/09/11 10:02:39;;;;;;;9.80;7.23;;;15.40;99.90;;;;;;8303967;28;20392;-69
2022/09/11 10:06:41;;;;;;;9.57;7.93;;;15.30;99.90;;;;;;8290425;28;20277;-68
2022/09/11 10:10:42;;;;;;;9.13;8.23;;;15.30;99.90;;;;;;8309494;28;20183;-69
2022/09/11 10:14:53;;;;;;;9.00;8.07;;;15.30;99.90;;;;;;8288511;28;20218;-68
2022/09/11 10:18:55;;;;;;;9.57;7.37;;;15.20;99.90;;;;;;8308974;28;20183;-69
2022/09/11 10:23:23;;;;;;;13.20;8.50;;;15.20;99.90;;;;;;8306353;28;20178;-69
2022/09/11 10:27:27;;;;;;;8.33;7.53;;;15.10;99.90;;;;;;8292768;28;20218;-69
2022/09/11 10:31:28;;;;;;;10.87;9.33;;;15.10;99.90;;;;;;8291209;28;20199;-69
2022/09/11 10:35:32;;;;;;;12.90;9.80;;;15.10;99.90;;;;;;8287904;28;20582;-68
2022/09/11 10:39:35;;;;;;;11.17;9.97;;;15.10;99.90;;;;;;8292148;28;20198;-68
2022/09/11 10:43:47;;;;;;;12.07;9.77;;;15.10;99.90;;;;;;8292963;28;20194;-69
2022/09/11 10:47:48;;;;;;;10.53;9.53;;;15.20;99.90;;;;;;8289597;28;20186;-69
2022/09/11 10:52:14;;;;;;;12.63;10.60;;;15.30;99.90;;;;;;8302068;28;20588;-69
2022/09/11 10:56:16;;;;;;;14.90;11.00;;;15.40;99.90;;;;;;8300804;28;20187;-69
2022/09/11 11:00:28;;;;;;;11.57;9.53;;;15.50;99.90;;;;;;8283784;28;20217;-68
2022/09/11 11:04:31;;;;;;;12.17;9.73;;;15.60;99.90;;;;;;8305313;28;20221;-69
2022/09/11 11:08:57;;;;;;;13.23;9.73;;;15.60;99.90;;;;;;8301708;28;20183;-68
2022/09/11 11:13:31;;;;;;;10.70;9.03;;;15.70;99.90;;;;;;8301937;28;20221;-68
2022/09/11 11:18:14;;;;;;;10.10;9.10;;;15.70;99.90;;;;;;8271887;28;20218;-69
2022/09/11 11:22:43;;;;;;;12.23;10.13;;;15.70;99.90;;;;;;8291292;28;20198;-69
2022/09/11 11:26:52;;;;;;;12.00;10.43;;;15.60;99.90;;;;;;8303707;28;20183;-70
2022/09/11 11:31:21;;;;;;;16.83;12.77;;;15.60;99.90;;;;;;8285112;28;20191;-70
2022/09/11 11:35:22;;;;;;;15.13;13.07;;;15.50;99.90;;;;;;8297618;28;20212;-70
2022/09/11 11:39:41;;;;;;;18.77;14.57;;;15.40;99.90;;;;;;8283774;28;20203;-68
2022/09/11 11:43:47;;;;;;;22.60;15.47;;;15.40;99.90;;;;;;8296212;28;20282;-69
2022/09/11 11:47:51;;;;;;;22.10;17.63;;;15.30;99.90;;;;;;8300835;28;20214;-69
2022/09/11 11:52:04;;;;;;;20.67;16.70;;;15.20;99.90;;;;;;8301202;28;20183;-69
2022/09/11 11:56:24;;;;;;;26.07;19.03;;;15.10;99.90;;;;;;8302741;28;20183;-72
2022/09/11 12:00:28;;;;;;;24.33;18.77;;;15.00;99.90;;;;;;8302042;28;20180;-69
2022/09/11 12:04:31;;;;;;;29.73;21.60;;;14.90;99.90;;;;;;8302052;28;20441;-69
2022/09/11 12:08:52;;;;;;;30.20;21.60;;;14.80;99.90;;;;;;8297444;28;20238;-69
2022/09/11 12:12:57;;;;;;;38.90;23.93;;;14.80;99.90;;;;;;8278495;28;20219;-69
2022/09/11 12:17:26;;;;;;;26.50;19.53;;;14.90;99.90;;;;;;8282662;28;20183;-68
2022/09/11 12:21:33;;;;;;;28.37;20.00;;;15.20;99.90;;;;;;8289759;28;20221;-69
2022/09/11 12:25:35;;;;;;;31.27;20.40;;;15.20;99.90;;;;;;8285920;28;20201;-69
2022/09/11 12:29:56;;;;;;;24.93;18.10;;;15.20;99.90;;;;;;8301485;28;20376;-69
2022/09/11 12:33:57;;;;;;;28.00;19.10;;;15.30;99.90;;;;;;8299667;28;20227;-68
2022/09/11 12:38:01;;;;;;;25.17;17.07;;;15.50;99.90;;;;;;8298800;28;20191;-69
2022/09/11 12:42:31;;;;;;;21.40;15.23;;;15.80;99.90;;;;;;8285229;28;20183;-69
2022/09/11 12:46:33;;;;;;;20.70;15.13;;;16.20;99.90;;;;;;8281730;28;20195;-69
2022/09/11 12:50:37;;;;;;;20.10;13.57;;;16.40;99.90;;;;;;8295794;28;20183;-73
2022/09/11 12:54:41;;;;;;;17.87;13.70;;;16.50;99.90;;;;;;8300761;28;20241;-69
2022/09/11 12:58:46;;;;;;;16.30;13.33;;;16.60;99.90;;;;;;8285856;28;20186;-68
2022/09/11 13:02:54;;;;;;;13.87;10.13;;;16.50;99.90;;;;;;8283837;28;20215;-68
2022/09/11 13:06:59;;;;;;;15.27;10.93;;;16.60;99.90;;;;;;8299475;28;20187;-69
2022/09/11 13:11:37;;;;;;;12.47;9.10;;;16.60;99.90;;;;;;8295398;28;20183;-69
2022/09/11 13:15:42;;;;;;;10.53;8.50;;;16.60;99.90;;;;;;8283199;28;20221;-69
2022/09/11 13:19:43;;;;;;;12.67;8.40;;;16.70;99.90;;;;;;8308966;28;20270;-68
2022/09/11 13:23:45;;;;;;;9.97;7.40;;;16.80;99.90;;;;;;8293493;28;20186;-69
2022/09/11 13:27:55;;;;;;;11.10;7.80;;;17.00;99.90;;;;;;8308931;28;20179;-69
2022/09/11 13:31:57;;;;;;;9.37;7.30;;;17.30;99.90;;;;;;8295164;28;20183;-69
2022/09/11 13:36:01;;;;;;;9.43;7.27;;;17.60;99.90;;;;;;8291531;28;20186;-69
2022/09/11 13:40:05;;;;;;;8.73;6.63;;;17.90;19.50;;;;;;8303165;28;20194;-69
2022/09/11 13:44:27;;;;;;;9.60;6.97;;;17.90;99.90;;;;;;8306551;28;20205;-68
2022/09/11 13:48:28;;;;;;;9.43;7.13;;;17.80;55.60;;;;;;8291689;28;20186;-68
2022/09/11 13:52:32;;;;;;;9.43;7.63;;;17.80;1.00;;;;;;8290476;28;20199;-70
2022/09/11 13:56:49;;;;;;;11.27;8.27;;;17.80;1.00;;;;;;8304938;28;20188;-68
2022/09/11 14:00:54;;;;;;;10.33;8.97;;;17.60;99.90;;;;;;8284139;28;20210;-70
2022/09/11 14:05:15;;;;;;;9.80;7.97;;;17.80;1.00;;;;;;8289892;28;20186;-68
2022/09/11 14:09:19;;;;;;;8.83;7.93;;;17.90;99.90;;;;;;8287407;28;20178;-69
2022/09/11 14:13:33;;;;;;;9.07;7.57;;;17.80;1.00;;;;;;8292561;28;20242;-68
2022/09/11 14:17:38;;;;;;;9.17;7.60;;;17.80;1.00;;;;;;8308663;28;20182;-69
2022/09/11 14:21:45;;;;;;;8.43;6.40;;;17.40;99.90;;;;;;8286173;28;20186;-68
2022/09/11 14:26:07;;;;;;;9.23;6.70;;;17.20;99.90;;;;;;8287609;28;20191;-69
2022/09/11 14:30:34;;;;;;;8.77;7.10;;;17.10;99.90;;;;;;8309231;28;20223;-68
2022/09/11 14:34:36;;;;;;;10.23;7.10;;;17.20;99.90;;;;;;8306910;28;20206;-69
2022/09/11 14:38:37;;;;;;;10.80;7.13;;;17.20;1.00;;;;;;8287423;28;20435;-69
2022/09/11 14:42:41;;;;;;;10.33;8.20;;;17.30;20.30;;;;;;8283251;28;20293;-69
2022/09/11 14:46:43;;;;;;;9.13;7.43;;;17.60;99.90;;;;;;8285134;28;20191;-69
2022/09/11 14:50:44;;;;;;;8.90;6.90;;;17.90;13.70;;;;;;8288082;28;20183;-68
2022/09/11 14:54:46;;;;;;;8.43;6.53;;;18.20;99.90;;;;;;8287399;28;20715;-68
2022/09/11 14:58:48;;;;;;;9.77;7.30;;;18.40;99.90;;;;;;8293092;28;20191;-69
2022/09/11 15:02:49;;;;;;;7.87;6.80;;;18.10;99.90;;;;;;8301005;28;20186;-69
2022/09/11 15:06:52;;;;;;;7.87;7.07;;;17.90;99.90;;;;;;8303148;28;20308;-69
2022/09/11 15:10:53;;;;;;;9.07;7.57;;;17.70;99.90;;;;;;8285422;28;20251;-69
2022/09/11 15:14:55;;;;;;;8.87;7.20;;;17.70;1.00;;;;;;8282655;28;20226;-69
2022/09/11 15:18:57;;;;;;;8.07;7.20;;;17.70;1.00;;;;;;8300084;28;20263;-69
2022/09/11 15:22:58;;;;;;;11.93;7.20;;;17.60;1.00;;;;;;8286106;28;20183;-69
2022/09/11 15:27:00;;;;;;;8.07;7.07;;;17.50;45.10;;;;;;8288366;28;20194;-68
2022/09/11 15:31:01;;;;;;;9.13;7.53;;;17.60;14.40;;;;;;8284981;28;20221;-68
2022/09/11 15:35:02;;;;;;;7.37;6.00;;;17.50;99.90;;;;;;8283866;28;20207;-69
2022/09/11 15:39:05;;;;;;;7.63;6.83;;;17.50;1.00;;;;;;8284333;28;20206;-68
2022/09/11 15:43:06;;;;;;;8.77;6.33;;;17.30;1.00;;;;;;8299058;28;20193;-68
2022/09/11 15:47:08;;;;;;;7.20;6.50;;;17.40;99.90;;;;;;8286749;28;20229;-69
2022/09/11 15:51:16;;;;;;;7.20;6.27;;;17.30;1.00;;;;;;8285991;28;20190;-69
2022/09/11 15:55:18;;;;;;;7.20;6.40;;;17.30;1.00;;;;;;8269031;28;20215;-69
2022/09/11 15:59:19;;;;;;;7.10;6.00;;;17.40;1.00;;;;;;8287534;28;20264;-68
2022/09/11 16:03:20;;;;;;;6.83;5.60;;;17.50;1.00;;;;;;8292525;28;20186;-69
2022/09/11 16:07:21;;;;;;;6.87;6.17;;;17.50;1.00;;;;;;8295050;28;20415;-69
2022/09/11 16:11:23;;;;;;;9.60;6.67;;;17.50;1.00;;;;;;8300378;28;20254;-69
2022/09/11 16:15:24;;;;;;;7.43;6.30;;;17.50;99.90;;;;;;8289248;28;20238;-70
2022/09/11 16:19:27;;;;;;;8.43;6.47;;;17.50;99.90;;;;;;8285460;28;20183;-69
2022/09/11 16:23:33;;;;;;;6.67;5.97;;;17.50;48.70;;;;;;8302124;28;20190;-69
2022/09/11 16:27:34;;;;;;;6.57;5.80;;;17.50;99.90;;;;;;8290723;28;20228;-68
2022/09/11 16:31:37;;;;;;;6.87;6.03;;;17.50;99.90;;;;;;8302999;28;20226;-68
2022/09/11 16:35:39;;;;;;;7.17;6.23;;;17.60;99.90;;;;;;8288510;28;20423;-69
2022/09/11 16:39:40;;;;;;;7.20;6.50;;;17.50;99.90;;;;;;8283525;28;20179;-69
2022/09/11 16:43:48;;;;;;;7.87;7.07;;;17.50;99.90;;;;;;8285025;28;20230;-69
2022/09/11 16:47:48;;;;;;;7.10;6.40;;;17.50;99.90;;;;;;8289385;28;20193;-68
2022/09/11 16:51:50;;;;;;;8.27;6.87;;;17.40;1.00;;;;;;8299996;28;20239;-68
2022/09/11 16:55:52;;;;;;;7.30;6.60;;;17.30;22.90;;;;;;8285639;28;20222;-68
2022/09/11 16:59:53;;;;;;;7.60;6.83;;;17.10;1.00;;;;;;8287532;28;20194;-69
2022/09/11 17:03:56;;;;;;;8.83;7.20;;;16.90;49.90;;;;;;8274390;28;20178;-69
2022/09/11 17:07:57;;;;;;;9.23;7.00;;;16.80;1.00;;;;;;8282278;28;20183;-69
2022/09/11 17:11:58;;;;;;;8.67;6.83;;;16.70;1.00;;;;;;8284493;28;20268;-69
2022/09/11 17:16:11;;;;;;;8.33;6.50;;;16.60;1.00;;;;;;8297996;28;20264;-69
2022/09/11 17:20:14;;;;;;;7.33;6.60;;;16.50;99.90;;;;;;8299229;28;20183;-69
2022/09/11 17:24:19;;;;;;;8.33;7.27;;;16.30;32.30;;;;;;8287107;28;20205;-68
2022/09/11 17:28:20;;;;;;;7.40;6.70;;;16.20;13.00;;;;;;8283117;28;20210;-68
2022/09/11 17:32:21;;;;;;;8.13;7.10;;;16.00;1.00;;;;;;8283460;28;20226;-69
2022/09/11 17:36:22;;;;;;;9.63;7.03;;;15.90;1.00;;;;;;8299596;28;20202;-68
2022/09/11 17:40:23;;;;;;;7.93;7.10;;;15.80;99.90;;;;;;8284984;28;20240;-68
2022/09/11 17:44:24;;;;;;;10.47;7.30;;;15.80;99.90;;;;;;8298060;28;20187;-69
2022/09/11 17:48:25;;;;;;;8.00;7.17;;;15.70;25.90;;;;;;8283508;28;20239;-69
2022/09/11 17:52:28;;;;;;;7.73;6.43;;;15.60;99.90;;;;;;8279193;28;20198;-69
2022/09/11 17:56:32;;;;;;;7.90;7.00;;;15.60;99.90;;;;;;8297405;28;20195;-69
2022/09/11 18:00:33;;;;;;;9.50;7.40;;;15.50;99.90;;;;;;8288596;28;20282;-69
2022/09/11 18:04:34;;;;;;;9.70;8.03;;;15.50;99.90;;;;;;8305201;28;20186;-69
2022/09/11 18:08:35;;;;;;;9.23;7.20;;;15.40;1.00;;;;;;8289386;28;20182;-69
2022/09/11 18:12:36;;;;;;;8.60;7.70;;;15.40;1.00;;;;;;8287741;28;20218;-69
2022/09/11 18:16:37;;;;;;;8.50;7.20;;;15.30;34.70;;;;;;8295687;28;20193;-69
2022/09/11 18:20:38;;;;;;;9.20;7.73;;;15.30;99.90;;;;;;8289103;28;20179;-69
2022/09/11 18:24:39;;;;;;;9.47;7.90;;;15.30;99.90;;;;;;8302269;28;20187;-69
2022/09/11 18:28:40;;;;;;;9.07;6.87;;;15.30;99.90;;;;;;8286286;28;20474;-69
2022/09/11 18:32:41;;;;;;;8.20;7.40;;;15.30;91.00;;;;;;8303381;28;20270;-71
2022/09/11 18:36:44;;;;;;;8.40;7.50;;;15.40;99.90;;;;;;8288945;28;20183;-69
2022/09/11 18:40:45;;;;;;;8.80;7.10;;;15.40;91.80;;;;;;8291496;28;20199;-69
2022/09/11 18:44:46;;;;;;;8.73;7.73;;;15.40;1.00;;;;;;8286787;28;20239;-69
2022/09/11 18:48:49;;;;;;;9.17;7.33;;;15.40;99.90;;;;;;8285718;28;20187;-70
2022/09/11 18:52:51;;;;;;;11.53;8.40;;;15.40;99.90;;;;;;8306903;28;20243;-69
2022/09/11 18:56:52;;;;;;;12.37;9.10;;;15.30;99.90;;;;;;8288574;28;20265;-70
2022/09/11 19:00:55;;;;;;;11.97;8.20;;;15.30;99.90;;;;;;8289094;28;20178;-70
2022/09/11 19:04:56;;;;;;;11.03;8.10;;;15.30;99.90;;;;;;8303367;28;20208;-69
2022/09/11 19:08:56;;;;;;;13.33;8.27;;;15.20;99.90;;;;;;8304106;28;20210;-70
2022/09/11 19:12:58;;;;;;;12.97;8.73;;;15.20;1.00;;;;;;8301542;28;20296;-69
2022/09/11 19:16:59;;;;;;;11.30;8.00;;;15.10;1.00;;;;;;8302847;28;20280;-69
2022/09/11 19:21:03;;;;;;;11.80;7.97;;;15.10;1.00;;;;;;8287958;28;20178;-69
2022/09/11 19:25:06;;;;;;;11.20;7.53;;;15.20;99.90;;;;;;8288759;28;20190;-69
2022/09/11 19:29:08;;;;;;;9.03;7.00;;;15.20;99.90;;;;;;8288501;28;20194;-69
2022/09/11 19:33:09;;;;;;;11.53;7.00;;;15.20;70.50;;;;;;8302305;28;20606;-71
2022/09/11 19:37:12;;;;;;;8.33;6.10;;;15.20;1.00;;;;;;8299700;28;20179;-69
2022/09/11 19:41:15;;;;;;;7.60;6.27;;;15.20;30.70;;;;;;8293832;28;20206;-69
2022/09/11 19:45:16;;;;;;;9.13;7.33;;;15.10;99.90;;;;;;8287540;28;20261;-72
2022/09/11 19:49:17;;;;;;;9.30;6.27;;;15.10;99.90;;;;;;8302975;28;20302;-69
2022/09/11 19:53:18;;;;;;;8.87;6.90;;;15.00;1.00;;;;;;8302053;28;20215;-69
2022/09/11 19:57:19;;;;;;;8.80;6.50;;;15.00;1.00;;;;;;8284432;28;20187;-69
2022/09/11 20:01:22;;;;;;;7.10;6.40;;;15.00;1.00;;;;;;8306172;28;20178;-69
2022/09/11 20:05:23;;;;;;;7.57;6.30;;;15.00;52.30;;;;;;8300574;28;20179;-69
2022/09/11 20:09:24;;;;;;;7.40;6.60;;;15.00;99.90;;;;;;8288535;28;20201;-71
2022/09/11 20:13:25;;;;;;;7.60;6.77;;;14.90;99.90;;;;;;8284845;28;20270;-69
2022/09/11 20:17:27;;;;;;;9.37;6.97;;;14.90;99.90;;;;;;8283903;28;20171;-69
2022/09/11 20:21:28;;;;;;;7.30;6.60;;;14.90;99.90;;;;;;8293171;28;20179;-69
2022/09/11 20:25:30;;;;;;;7.53;6.57;;;14.80;99.90;;;;;;8301435;28;20214;-69
2022/09/11 20:29:30;;;;;;;8.83;5.93;;;14.80;99.90;;;;;;8296381;28;20191;-69
2022/09/11 20:33:33;;;;;;;7.80;6.87;;;14.80;99.90;;;;;;8298361;28;20226;-69
2022/09/11 20:37:37;;;;;;;7.40;6.10;;;14.80;99.90;;;;;;8289015;28;20229;-69
2022/09/11 20:41:38;;;;;;;8.10;6.17;;;14.80;99.90;;;;;;8298291;28;20230;-69
2022/09/11 20:45:39;;;;;;;6.83;6.13;;;14.80;99.90;;;;;;8301362;28;20213;-69
2022/09/11 20:49:40;;;;;;;10.60;6.63;;;14.80;99.90;;;;;;8297269;28;20197;-69
2022/09/11 20:53:44;;;;;;;8.80;7.00;;;14.80;99.90;;;;;;8303473;28;20297;-70
2022/09/11 20:57:45;;;;;;;8.13;6.50;;;14.80;99.90;;;;;;8300406;28;20175;-69
2022/09/11 21:01:47;;;;;;;7.70;6.50;;;14.80;99.90;;;;;;8300685;28;20266;-69
2022/09/11 21:05:48;;;;;;;8.07;6.27;;;14.70;99.90;;;;;;8283801;28;20193;-70
2022/09/11 21:09:49;;;;;;;8.67;6.50;;;14.70;99.90;;;;;;8300144;28;20186;-69